Sioux Lookout, Ontario

10:10 PM CST on February 05, 2016 (GMT -0600)
Sioux Lookout | | Change Station
CLOSE
Current Station
Airport
Location: Sioux Lookout,
Elevation: 1257 ft
Nearby Weather Stations

Elev 1257 ft 50.11 °N, 91.91 °W | Updated 10 minutes ago

Light Snow
Light Snow
12 °F
Feels Like 6 °F
N
4
Wind Variable Wind from West

Today
High -- | Low -- °F
--% Chance of Precip.
Yesterday
High -- | Low -- °F
Precip. -- in
Pressure 30.09 in
Visibility 15.0 miles
Clouds Scattered Clouds 1100 ft
Overcast 6300 ft
Windchill 6 °F
Dew Point 10 °F
Humidity 92%
Rainfall 0.00 in
Snow Depth Not available.
7:36 AM 5:07 PM
Waning Crescent, 8% visible
METAR CYXL 060400Z 27003KT 15SM -SN SCT011 OVC063 M11/M12 A2998 RMK SC3SC5 SLP190
Pressure 30.09 in
Visibility 15.0 miles
Clouds Scattered Clouds 1100 ft
Overcast 6300 ft
Windchill 6 °F
Dew Point 10 °F
Humidity 92%
Rainfall 0.00 in
Snow Depth Not available.
7:36 AM 5:07 PM
Waning Crescent, 8% visible
METAR CYXL 060400Z 27003KT 15SM -SN SCT011 OVC063 M11/M12 A2998 RMK SC3SC5 SLP190

10-Day Weather Forecast

Almanac

Astronomy

Feb. 05, 2016 Rise Set
Actual Time
Civil Twilight
Nautical Twilight
Astronomical Twilight
Moon
Length of Visible Light
Length of Day
Tomorrow will be .
, % of the Moon is Illuminated

Today's Extremes

Country Highs Country Lows

Community

WunderPhotos

Upload Photos

1,890,916 photos uploaded!

WunderBlog® & News

Nearby

Air Quality

  Air Quality AQ Index Pollutant
Not available.

Snow Depth

Station Depth Elevation

Earthquake Activity

City Distance Mag. Time & Date
Minimum magnitude displayed is 2.5.

Coastal Water Temperatures

Place Temperature

Stations

Nearby Weather Stations

Station Location Temp. Windchill Dew Point Humidity Wind Precip. Elev Updated Type
                   

Watches & Warnings

There are currently no watches in effect.